Clear Creek Springs, Kentucky
Current Conditions -  °F | °C
As of 5:15 AM on Friday 24 Oct 2014 (Local Time) from K1A6 Reporting Station
Overcast Overcast  
Wind Chill: 41°   Ceiling: 400
Heat Index: 41°   Visibility: 7mi
Dew Point: 41°   Wind: 0mph
Humidity: 98%   Direction: NA
Pressure: 30.13"   Gusts: NA
Location:  36.7417°N, 83.6911°W
Report Text: K1A6 240915Z AUTO 00000KT 7SM OVC004 05/05 A3013 RMK AO2 T00510048
Loading
Personal Weather Stations






























Interactive Weather Map
Tropical Storm Tracking
New forecast layout! Learn more

10-Day Weather Forecast

Advertisements
Track Severe Weather on mobile